Aviation Digital Data Service (ADDS)

Output produced by METARs form (1705 UTC 30 October 2020)
found at http://www.aviationweather.gov/metar/data/
 
KANB 301653Z AUTO 01012G19KT 10SM SCT035 16/06 A3020 RMK AO2 SLP227 T01560056
KANB 301620Z AUTO 33011G15KT 290V350 10SM BKN030 14/06 A3020 RMK AO2 T01390061
KANB 301120Z 3012/3112 29006KT P6SM OVC020 
     FM301500 32007KT P6SM BKN045 
     FM301900 33010KT P6SM FEW250 
     FM310000 01005KT P6SM SKC